sensor_id;sensor_type;location;lat;lon;timestamp;P1;durP1;ratioP1;P2;durP2;ratioP2
8293;SDS011;4185;41.506;24.938;2022-12-29T00:00:08;13.30;;;9.30;;
8293;SDS011;4185;41.506;24.938;2022-12-29T00:02:37;14.27;;;9.30;;
8293;SDS011;4185;41.506;24.938;2022-12-29T00:05:04;12.90;;;8.00;;
8293;SDS011;4185;41.506;24.938;2022-12-29T00:07:32;17.57;;;9.40;;
8293;SDS011;4185;41.506;24.938;2022-12-29T00:10:00;20.93;;;12.40;;
8293;SDS011;4185;41.506;24.938;2022-12-29T00:12:27;27.63;;;14.70;;
8293;SDS011;4185;41.506;24.938;2022-12-29T00:15:14;26.43;;;15.00;;
8293;SDS011;4185;41.506;24.938;2022-12-29T00:17:59;18.07;;;11.17;;
8293;SDS011;4185;41.506;24.938;2022-12-29T00:20:26;15.87;;;10.30;;
8293;SDS011;4185;41.506;24.938;2022-12-29T00:23:10;17.00;;;10.93;;
8293;SDS011;4185;41.506;24.938;2022-12-29T00:25:56;12.17;;;8.70;;
8293;SDS011;4185;41.506;24.938;2022-12-29T00:28:40;13.80;;;9.27;;
8293;SDS011;4185;41.506;24.938;2022-12-29T00:31:24;15.03;;;9.80;;
8293;SDS011;4185;41.506;24.938;2022-12-29T00:34:10;15.57;;;10.13;;
8293;SDS011;4185;41.506;24.938;2022-12-29T00:36:55;17.00;;;10.90;;
8293;SDS011;4185;41.506;24.938;2022-12-29T00:39:23;14.73;;;9.90;;
8293;SDS011;4185;41.506;24.938;2022-12-29T00:42:08;16.87;;;9.47;;
8293;SDS011;4185;41.506;24.938;2022-12-29T00:44:52;12.40;;;9.10;;
8293;SDS011;4185;41.506;24.938;2022-12-29T00:47:18;17.87;;;12.03;;
8293;SDS011;4185;41.506;24.938;2022-12-29T00:49:45;15.03;;;10.43;;
8293;SDS011;4185;41.506;24.938;2022-12-29T00:52:11;18.63;;;10.20;;
8293;SDS011;4185;41.506;24.938;2022-12-29T00:54:39;15.00;;;10.60;;
8293;SDS011;4185;41.506;24.938;2022-12-29T00:57:11;12.10;;;8.30;;
8293;SDS011;4185;41.506;24.938;2022-12-29T00:59:39;14.20;;;9.27;;
8293;SDS011;4185;41.506;24.938;2022-12-29T01:02:07;13.07;;;9.07;;
8293;SDS011;4185;41.506;24.938;2022-12-29T01:04:35;13.47;;;8.87;;
8293;SDS011;4185;41.506;24.938;2022-12-29T01:07:02;16.47;;;8.97;;
8293;SDS011;4185;41.506;24.938;2022-12-29T01:09:30;19.23;;;9.97;;
8293;SDS011;4185;41.506;24.938;2022-12-29T01:12:16;15.53;;;9.67;;
8293;SDS011;4185;41.506;24.938;2022-12-29T01:15:05;15.27;;;10.57;;
8293;SDS011;4185;41.506;24.938;2022-12-29T01:17:33;15.10;;;9.70;;
8293;SDS011;4185;41.506;24.938;2022-12-29T01:20:00;14.57;;;9.80;;
8293;SDS011;4185;41.506;24.938;2022-12-29T01:22:27;14.07;;;9.83;;
8293;SDS011;4185;41.506;24.938;2022-12-29T01:24:54;20.70;;;11.03;;
8293;SDS011;4185;41.506;24.938;2022-12-29T01:27:22;14.77;;;9.93;;
8293;SDS011;4185;41.506;24.938;2022-12-29T01:29:49;14.37;;;9.20;;
8293;SDS011;4185;41.506;24.938;2022-12-29T01:32:16;15.23;;;9.10;;
8293;SDS011;4185;41.506;24.938;2022-12-29T01:34:43;12.03;;;7.80;;
8293;SDS011;4185;41.506;24.938;2022-12-29T01:37:10;16.13;;;8.60;;
8293;SDS011;4185;41.506;24.938;2022-12-29T01:39:37;15.87;;;10.07;;
8293;SDS011;4185;41.506;24.938;2022-12-29T01:42:04;15.07;;;9.10;;
8293;SDS011;4185;41.506;24.938;2022-12-29T01:44:54;14.13;;;8.83;;
8293;SDS011;4185;41.506;24.938;2022-12-29T01:47:25;14.87;;;8.67;;
8293;SDS011;4185;41.506;24.938;2022-12-29T01:49:57;12.60;;;8.70;;
8293;SDS011;4185;41.506;24.938;2022-12-29T01:52:30;18.17;;;9.97;;
8293;SDS011;4185;41.506;24.938;2022-12-29T01:55:00;22.43;;;12.07;;
8293;SDS011;4185;41.506;24.938;2022-12-29T01:57:30;18.03;;;10.83;;
8293;SDS011;4185;41.506;24.938;2022-12-29T02:00:03;19.40;;;12.60;;
8293;SDS011;4185;41.506;24.938;2022-12-29T02:02:32;15.37;;;9.70;;
8293;SDS011;4185;41.506;24.938;2022-12-29T02:04:59;17.60;;;10.37;;
8293;SDS011;4185;41.506;24.938;2022-12-29T02:07:32;12.67;;;8.60;;
8293;SDS011;4185;41.506;24.938;2022-12-29T02:09:59;12.23;;;8.40;;
8293;SDS011;4185;41.506;24.938;2022-12-29T02:12:27;14.33;;;9.70;;
8293;SDS011;4185;41.506;24.938;2022-12-29T02:14:55;16.30;;;10.53;;
8293;SDS011;4185;41.506;24.938;2022-12-29T02:17:31;15.60;;;8.90;;
8293;SDS011;4185;41.506;24.938;2022-12-29T02:20:16;13.93;;;8.67;;
8293;SDS011;4185;41.506;24.938;2022-12-29T02:23:33;11.30;;;8.23;;
8293;SDS011;4185;41.506;24.938;2022-12-29T02:26:24;12.47;;;8.63;;
8293;SDS011;4185;41.506;24.938;2022-12-29T02:32:15;15.60;;;9.43;;
8293;SDS011;4185;41.506;24.938;2022-12-29T02:34:52;16.67;;;10.80;;
8293;SDS011;4185;41.506;24.938;2022-12-29T02:37:29;16.63;;;10.73;;
8293;SDS011;4185;41.506;24.938;2022-12-29T02:40:04;15.27;;;9.63;;
8293;SDS011;4185;41.506;24.938;2022-12-29T02:42:48;25.13;;;13.10;;
8293;SDS011;4185;41.506;24.938;2022-12-29T02:45:21;21.47;;;12.33;;
8293;SDS011;4185;41.506;24.938;2022-12-29T02:48:00;17.77;;;11.47;;
8293;SDS011;4185;41.506;24.938;2022-12-29T02:50:33;12.63;;;8.77;;
8293;SDS011;4185;41.506;24.938;2022-12-29T02:53:04;10.37;;;8.43;;
8293;SDS011;4185;41.506;24.938;2022-12-29T02:55:34;8.43;;;7.37;;
8293;SDS011;4185;41.506;24.938;2022-12-29T03:00:52;15.77;;;10.40;;
8293;SDS011;4185;41.506;24.938;2022-12-29T03:03:37;14.97;;;8.27;;
8293;SDS011;4185;41.506;24.938;2022-12-29T03:06:30;16.27;;;9.30;;
8293;SDS011;4185;41.506;24.938;2022-12-29T03:09:03;16.20;;;8.97;;
8293;SDS011;4185;41.506;24.938;2022-12-29T03:11:40;9.77;;;7.53;;
8293;SDS011;4185;41.506;24.938;2022-12-29T03:14:31;12.30;;;8.20;;
8293;SDS011;4185;41.506;24.938;2022-12-29T03:17:23;15.43;;;8.60;;
8293;SDS011;4185;41.506;24.938;2022-12-29T03:19:55;15.40;;;8.50;;
8293;SDS011;4185;41.506;24.938;2022-12-29T03:22:30;13.80;;;7.83;;
8293;SDS011;4185;41.506;24.938;2022-12-29T03:25:02;12.03;;;8.53;;
8293;SDS011;4185;41.506;24.938;2022-12-29T03:27:36;15.43;;;8.20;;
8293;SDS011;4185;41.506;24.938;2022-12-29T03:30:07;11.37;;;7.70;;
8293;SDS011;4185;41.506;24.938;2022-12-29T03:32:36;13.90;;;8.73;;
8293;SDS011;4185;41.506;24.938;2022-12-29T03:35:08;11.47;;;8.27;;
8293;SDS011;4185;41.506;24.938;2022-12-29T03:37:41;13.97;;;7.53;;
8293;SDS011;4185;41.506;24.938;2022-12-29T03:40:11;10.93;;;7.63;;
8293;SDS011;4185;41.506;24.938;2022-12-29T03:42:38;11.63;;;7.93;;
8293;SDS011;4185;41.506;24.938;2022-12-29T03:45:07;16.13;;;8.33;;
8293;SDS011;4185;41.506;24.938;2022-12-29T03:47:35;14.37;;;7.60;;
8293;SDS011;4185;41.506;24.938;2022-12-29T03:50:02;13.40;;;8.40;;
8293;SDS011;4185;41.506;24.938;2022-12-29T03:52:31;16.50;;;9.07;;
8293;SDS011;4185;41.506;24.938;2022-12-29T03:54:58;13.60;;;8.80;;
8293;SDS011;4185;41.506;24.938;2022-12-29T03:57:24;14.67;;;8.20;;
8293;SDS011;4185;41.506;24.938;2022-12-29T03:59:51;17.10;;;8.00;;
8293;SDS011;4185;41.506;24.938;2022-12-29T04:02:18;17.93;;;10.20;;
8293;SDS011;4185;41.506;24.938;2022-12-29T04:04:45;23.07;;;10.43;;
8293;SDS011;4185;41.506;24.938;2022-12-29T04:07:12;18.70;;;9.60;;
8293;SDS011;4185;41.506;24.938;2022-12-29T04:09:40;18.83;;;10.30;;
8293;SDS011;4185;41.506;24.938;2022-12-29T04:12:07;27.67;;;12.40;;
8293;SDS011;4185;41.506;24.938;2022-12-29T04:14:34;19.70;;;10.10;;
8293;SDS011;4185;41.506;24.938;2022-12-29T04:17:01;22.23;;;10.77;;
8293;SDS011;4185;41.506;24.938;2022-12-29T04:19:27;23.83;;;10.23;;
8293;SDS011;4185;41.506;24.938;2022-12-29T04:21:54;24.33;;;10.70;;
8293;SDS011;4185;41.506;24.938;2022-12-29T04:24:21;28.43;;;12.17;;
8293;SDS011;4185;41.506;24.938;2022-12-29T04:26:49;30.73;;;14.80;;
8293;SDS011;4185;41.506;24.938;2022-12-29T04:29:16;15.27;;;9.07;;
8293;SDS011;4185;41.506;24.938;2022-12-29T04:31:43;19.10;;;9.20;;
8293;SDS011;4185;41.506;24.938;2022-12-29T04:34:10;13.70;;;8.67;;
8293;SDS011;4185;41.506;24.938;2022-12-29T04:36:37;18.77;;;9.27;;
8293;SDS011;4185;41.506;24.938;2022-12-29T04:39:05;14.67;;;8.93;;
8293;SDS011;4185;41.506;24.938;2022-12-29T04:41:32;18.30;;;10.93;;
8293;SDS011;4185;41.506;24.938;2022-12-29T04:44:00;21.23;;;11.47;;
8293;SDS011;4185;41.506;24.938;2022-12-29T04:46:27;23.57;;;12.20;;
8293;SDS011;4185;41.506;24.938;2022-12-29T04:48:54;26.23;;;13.03;;
8293;SDS011;4185;41.506;24.938;2022-12-29T04:51:21;25.27;;;12.60;;
8293;SDS011;4185;41.506;24.938;2022-12-29T04:53:48;25.27;;;13.07;;
8293;SDS011;4185;41.506;24.938;2022-12-29T04:56:15;22.63;;;11.23;;
8293;SDS011;4185;41.506;24.938;2022-12-29T04:58:42;15.17;;;9.63;;
8293;SDS011;4185;41.506;24.938;2022-12-29T05:01:10;25.03;;;11.23;;
8293;SDS011;4185;41.506;24.938;2022-12-29T05:03:37;15.57;;;8.20;;
8293;SDS011;4185;41.506;24.938;2022-12-29T05:06:04;16.53;;;9.10;;
8293;SDS011;4185;41.506;24.938;2022-12-29T05:08:31;18.07;;;9.60;;
8293;SDS011;4185;41.506;24.938;2022-12-29T05:10:57;24.90;;;11.77;;
8293;SDS011;4185;41.506;24.938;2022-12-29T05:13:24;23.00;;;12.03;;
8293;SDS011;4185;41.506;24.938;2022-12-29T05:15:51;18.13;;;10.27;;
8293;SDS011;4185;41.506;24.938;2022-12-29T05:18:20;16.47;;;9.10;;
8293;SDS011;4185;41.506;24.938;2022-12-29T05:20:47;16.47;;;8.87;;
8293;SDS011;4185;41.506;24.938;2022-12-29T05:23:14;17.07;;;9.30;;
8293;SDS011;4185;41.506;24.938;2022-12-29T05:25:42;22.00;;;10.50;;
8293;SDS011;4185;41.506;24.938;2022-12-29T05:28:10;22.37;;;11.53;;
8293;SDS011;4185;41.506;24.938;2022-12-29T05:30:38;14.80;;;9.83;;
8293;SDS011;4185;41.506;24.938;2022-12-29T05:33:06;22.23;;;11.83;;
8293;SDS011;4185;41.506;24.938;2022-12-29T05:35:34;20.00;;;9.70;;
8293;SDS011;4185;41.506;24.938;2022-12-29T05:38:01;18.97;;;10.67;;
8293;SDS011;4185;41.506;24.938;2022-12-29T05:40:28;20.10;;;10.40;;
8293;SDS011;4185;41.506;24.938;2022-12-29T05:42:54;19.70;;;11.07;;
8293;SDS011;4185;41.506;24.938;2022-12-29T05:45:21;16.53;;;9.93;;
8293;SDS011;4185;41.506;24.938;2022-12-29T05:47:48;21.17;;;12.23;;
8293;SDS011;4185;41.506;24.938;2022-12-29T05:50:15;31.33;;;15.30;;
8293;SDS011;4185;41.506;24.938;2022-12-29T05:52:43;22.60;;;11.87;;
8293;SDS011;4185;41.506;24.938;2022-12-29T05:55:11;19.53;;;10.47;;
8293;SDS011;4185;41.506;24.938;2022-12-29T05:57:38;22.27;;;13.23;;
8293;SDS011;4185;41.506;24.938;2022-12-29T06:00:05;19.77;;;10.73;;
8293;SDS011;4185;41.506;24.938;2022-12-29T06:02:33;19.77;;;11.07;;
8293;SDS011;4185;41.506;24.938;2022-12-29T06:05:00;19.33;;;11.17;;
8293;SDS011;4185;41.506;24.938;2022-12-29T06:07:27;15.87;;;9.90;;
8293;SDS011;4185;41.506;24.938;2022-12-29T06:09:55;23.43;;;13.67;;
8293;SDS011;4185;41.506;24.938;2022-12-29T06:12:22;11.40;;;8.00;;
8293;SDS011;4185;41.506;24.938;2022-12-29T06:14:49;13.87;;;9.43;;
8293;SDS011;4185;41.506;24.938;2022-12-29T06:17:15;20.83;;;11.73;;
8293;SDS011;4185;41.506;24.938;2022-12-29T06:19:42;19.63;;;11.53;;
8293;SDS011;4185;41.506;24.938;2022-12-29T06:22:10;14.80;;;8.97;;
8293;SDS011;4185;41.506;24.938;2022-12-29T06:24:37;21.00;;;12.43;;
8293;SDS011;4185;41.506;24.938;2022-12-29T06:27:08;23.53;;;14.13;;
8293;SDS011;4185;41.506;24.938;2022-12-29T06:29:35;24.30;;;13.47;;
8293;SDS011;4185;41.506;24.938;2022-12-29T06:32:02;22.47;;;12.30;;
8293;SDS011;4185;41.506;24.938;2022-12-29T06:34:29;18.90;;;11.43;;
8293;SDS011;4185;41.506;24.938;2022-12-29T06:36:56;18.53;;;11.00;;
8293;SDS011;4185;41.506;24.938;2022-12-29T06:39:23;20.10;;;9.97;;
8293;SDS011;4185;41.506;24.938;2022-12-29T06:41:51;16.57;;;11.40;;
8293;SDS011;4185;41.506;24.938;2022-12-29T06:44:20;14.40;;;9.17;;
8293;SDS011;4185;41.506;24.938;2022-12-29T06:46:47;54.83;;;31.27;;
8293;SDS011;4185;41.506;24.938;2022-12-29T06:49:14;17.83;;;8.73;;
8293;SDS011;4185;41.506;24.938;2022-12-29T06:51:41;14.93;;;10.57;;
8293;SDS011;4185;41.506;24.938;2022-12-29T06:54:08;20.13;;;12.83;;
8293;SDS011;4185;41.506;24.938;2022-12-29T06:56:35;15.37;;;9.03;;
8293;SDS011;4185;41.506;24.938;2022-12-29T06:59:02;19.77;;;12.57;;
8293;SDS011;4185;41.506;24.938;2022-12-29T07:01:30;21.10;;;11.83;;
8293;SDS011;4185;41.506;24.938;2022-12-29T07:03:57;18.27;;;11.83;;
8293;SDS011;4185;41.506;24.938;2022-12-29T07:06:24;16.33;;;10.47;;
8293;SDS011;4185;41.506;24.938;2022-12-29T07:08:51;26.50;;;14.30;;
8293;SDS011;4185;41.506;24.938;2022-12-29T07:11:20;36.03;;;21.23;;
8293;SDS011;4185;41.506;24.938;2022-12-29T07:13:47;27.80;;;15.23;;
8293;SDS011;4185;41.506;24.938;2022-12-29T07:16:13;34.73;;;17.70;;
8293;SDS011;4185;41.506;24.938;2022-12-29T07:18:42;22.60;;;13.03;;
8293;SDS011;4185;41.506;24.938;2022-12-29T07:21:09;38.67;;;20.70;;
8293;SDS011;4185;41.506;24.938;2022-12-29T07:23:36;40.73;;;22.80;;
8293;SDS011;4185;41.506;24.938;2022-12-29T07:26:04;33.77;;;18.10;;
8293;SDS011;4185;41.506;24.938;2022-12-29T07:28:32;24.63;;;12.90;;
8293;SDS011;4185;41.506;24.938;2022-12-29T07:31:01;25.03;;;12.50;;
8293;SDS011;4185;41.506;24.938;2022-12-29T07:33:28;18.10;;;10.70;;
8293;SDS011;4185;41.506;24.938;2022-12-29T07:35:57;17.07;;;10.07;;
8293;SDS011;4185;41.506;24.938;2022-12-29T07:38:25;17.80;;;11.47;;
8293;SDS011;4185;41.506;24.938;2022-12-29T07:40:55;17.17;;;10.03;;
8293;SDS011;4185;41.506;24.938;2022-12-29T07:43:23;24.87;;;13.23;;
8293;SDS011;4185;41.506;24.938;2022-12-29T07:45:50;21.80;;;12.43;;
8293;SDS011;4185;41.506;24.938;2022-12-29T07:48:17;16.63;;;10.70;;
8293;SDS011;4185;41.506;24.938;2022-12-29T07:50:43;26.17;;;14.97;;
8293;SDS011;4185;41.506;24.938;2022-12-29T07:53:12;25.40;;;14.80;;
8293;SDS011;4185;41.506;24.938;2022-12-29T07:55:39;25.07;;;14.23;;
8293;SDS011;4185;41.506;24.938;2022-12-29T07:58:06;15.33;;;9.43;;
8293;SDS011;4185;41.506;24.938;2022-12-29T08:00:33;27.53;;;16.60;;
8293;SDS011;4185;41.506;24.938;2022-12-29T08:03:00;29.43;;;16.23;;
8293;SDS011;4185;41.506;24.938;2022-12-29T08:05:27;28.27;;;16.33;;
8293;SDS011;4185;41.506;24.938;2022-12-29T08:07:54;31.47;;;19.83;;
8293;SDS011;4185;41.506;24.938;2022-12-29T08:10:23;28.13;;;17.50;;
8293;SDS011;4185;41.506;24.938;2022-12-29T08:12:50;38.07;;;19.17;;
8293;SDS011;4185;41.506;24.938;2022-12-29T08:15:17;23.63;;;15.20;;
8293;SDS011;4185;41.506;24.938;2022-12-29T08:17:44;32.07;;;16.60;;
8293;SDS011;4185;41.506;24.938;2022-12-29T08:20:11;23.07;;;13.40;;
8293;SDS011;4185;41.506;24.938;2022-12-29T08:22:39;18.83;;;11.23;;
8293;SDS011;4185;41.506;24.938;2022-12-29T08:25:06;32.13;;;18.83;;
8293;SDS011;4185;41.506;24.938;2022-12-29T08:27:37;26.00;;;14.90;;
8293;SDS011;4185;41.506;24.938;2022-12-29T08:30:04;26.43;;;15.17;;
8293;SDS011;4185;41.506;24.938;2022-12-29T08:32:32;20.90;;;13.07;;
8293;SDS011;4185;41.506;24.938;2022-12-29T08:34:59;25.03;;;12.30;;
8293;SDS011;4185;41.506;24.938;2022-12-29T08:37:26;26.40;;;15.37;;
8293;SDS011;4185;41.506;24.938;2022-12-29T08:39:53;29.40;;;16.83;;
8293;SDS011;4185;41.506;24.938;2022-12-29T08:42:20;27.47;;;17.37;;
8293;SDS011;4185;41.506;24.938;2022-12-29T08:44:48;30.27;;;16.90;;
8293;SDS011;4185;41.506;24.938;2022-12-29T08:47:15;29.00;;;16.03;;
8293;SDS011;4185;41.506;24.938;2022-12-29T08:49:42;35.53;;;17.73;;
8293;SDS011;4185;41.506;24.938;2022-12-29T08:52:09;35.17;;;17.13;;
8293;SDS011;4185;41.506;24.938;2022-12-29T08:54:35;23.47;;;15.47;;
8293;SDS011;4185;41.506;24.938;2022-12-29T08:57:02;22.10;;;15.50;;
8293;SDS011;4185;41.506;24.938;2022-12-29T08:59:29;18.17;;;12.93;;
8293;SDS011;4185;41.506;24.938;2022-12-29T09:01:57;23.43;;;13.87;;
8293;SDS011;4185;41.506;24.938;2022-12-29T09:04:25;36.57;;;21.57;;
8293;SDS011;4185;41.506;24.938;2022-12-29T09:06:52;24.50;;;15.07;;
8293;SDS011;4185;41.506;24.938;2022-12-29T09:09:19;28.63;;;17.63;;
8293;SDS011;4185;41.506;24.938;2022-12-29T09:11:46;29.50;;;18.60;;
8293;SDS011;4185;41.506;24.938;2022-12-29T09:14:13;26.57;;;17.10;;
8293;SDS011;4185;41.506;24.938;2022-12-29T09:16:40;27.40;;;16.83;;
8293;SDS011;4185;41.506;24.938;2022-12-29T09:19:26;26.77;;;15.17;;
8293;SDS011;4185;41.506;24.938;2022-12-29T09:21:53;21.93;;;13.87;;
8293;SDS011;4185;41.506;24.938;2022-12-29T09:24:20;23.60;;;14.93;;
8293;SDS011;4185;41.506;24.938;2022-12-29T09:26:47;34.50;;;21.30;;
8293;SDS011;4185;41.506;24.938;2022-12-29T09:29:13;45.23;;;23.37;;
8293;SDS011;4185;41.506;24.938;2022-12-29T09:31:40;29.93;;;18.27;;
8293;SDS011;4185;41.506;24.938;2022-12-29T09:34:07;37.00;;;20.87;;
8293;SDS011;4185;41.506;24.938;2022-12-29T09:36:36;37.17;;;21.47;;
8293;SDS011;4185;41.506;24.938;2022-12-29T09:39:02;36.33;;;22.17;;
8293;SDS011;4185;41.506;24.938;2022-12-29T09:41:31;31.70;;;20.00;;
8293;SDS011;4185;41.506;24.938;2022-12-29T09:44:04;32.57;;;20.80;;
8293;SDS011;4185;41.506;24.938;2022-12-29T09:46:39;30.13;;;19.63;;
8293;SDS011;4185;41.506;24.938;2022-12-29T09:49:11;43.63;;;24.20;;
8293;SDS011;4185;41.506;24.938;2022-12-29T09:51:48;49.40;;;25.80;;
8293;SDS011;4185;41.506;24.938;2022-12-29T09:54:23;49.27;;;23.97;;
8293;SDS011;4185;41.506;24.938;2022-12-29T09:56:58;28.17;;;16.13;;
8293;SDS011;4185;41.506;24.938;2022-12-29T09:59:26;26.40;;;14.87;;
8293;SDS011;4185;41.506;24.938;2022-12-29T10:02:04;22.63;;;13.93;;
8293;SDS011;4185;41.506;24.938;2022-12-29T10:04:50;19.70;;;13.00;;
8293;SDS011;4185;41.506;24.938;2022-12-29T10:07:21;19.40;;;12.60;;
8293;SDS011;4185;41.506;24.938;2022-12-29T10:09:57;21.60;;;12.87;;
8293;SDS011;4185;41.506;24.938;2022-12-29T10:12:38;21.93;;;11.97;;
8293;SDS011;4185;41.506;24.938;2022-12-29T10:15:23;15.77;;;10.10;;
8293;SDS011;4185;41.506;24.938;2022-12-29T10:18:03;15.83;;;10.63;;
8293;SDS011;4185;41.506;24.938;2022-12-29T10:20:47;12.27;;;8.67;;
8293;SDS011;4185;41.506;24.938;2022-12-29T10:23:29;12.43;;;8.30;;
8293;SDS011;4185;41.506;24.938;2022-12-29T10:26:01;9.93;;;7.17;;
8293;SDS011;4185;41.506;24.938;2022-12-29T10:28:33;8.03;;;6.73;;
8293;SDS011;4185;41.506;24.938;2022-12-29T10:31:05;9.10;;;6.30;;
8293;SDS011;4185;41.506;24.938;2022-12-29T10:33:36;11.07;;;6.77;;
8293;SDS011;4185;41.506;24.938;2022-12-29T10:36:10;9.50;;;6.87;;
8293;SDS011;4185;41.506;24.938;2022-12-29T10:38:44;8.90;;;6.23;;
8293;SDS011;4185;41.506;24.938;2022-12-29T10:41:17;10.97;;;6.60;;
8293;SDS011;4185;41.506;24.938;2022-12-29T10:43:50;8.90;;;6.80;;
8293;SDS011;4185;41.506;24.938;2022-12-29T10:46:20;9.23;;;6.37;;
8293;SDS011;4185;41.506;24.938;2022-12-29T10:48:49;11.47;;;6.53;;
8293;SDS011;4185;41.506;24.938;2022-12-29T10:51:18;7.30;;;5.40;;
8293;SDS011;4185;41.506;24.938;2022-12-29T10:53:50;9.17;;;6.67;;
8293;SDS011;4185;41.506;24.938;2022-12-29T10:56:25;8.40;;;6.60;;
8293;SDS011;4185;41.506;24.938;2022-12-29T10:58:58;10.40;;;6.57;;
8293;SDS011;4185;41.506;24.938;2022-12-29T11:01:30;9.60;;;6.40;;
8293;SDS011;4185;41.506;24.938;2022-12-29T11:04:02;7.63;;;6.13;;
8293;SDS011;4185;41.506;24.938;2022-12-29T11:06:32;8.23;;;6.37;;
8293;SDS011;4185;41.506;24.938;2022-12-29T11:09:01;10.30;;;6.63;;
8293;SDS011;4185;41.506;24.938;2022-12-29T11:11:36;8.50;;;6.20;;
8293;SDS011;4185;41.506;24.938;2022-12-29T11:14:08;8.60;;;6.60;;
8293;SDS011;4185;41.506;24.938;2022-12-29T11:16:39;7.13;;;5.90;;
8293;SDS011;4185;41.506;24.938;2022-12-29T11:19:19;8.60;;;6.40;;
8293;SDS011;4185;41.506;24.938;2022-12-29T11:21:47;7.63;;;6.10;;
8293;SDS011;4185;41.506;24.938;2022-12-29T11:24:25;7.80;;;5.80;;
8293;SDS011;4185;41.506;24.938;2022-12-29T11:26:54;9.93;;;6.60;;
8293;SDS011;4185;41.506;24.938;2022-12-29T11:29:23;8.43;;;6.10;;
8293;SDS011;4185;41.506;24.938;2022-12-29T11:31:53;12.17;;;7.80;;
8293;SDS011;4185;41.506;24.938;2022-12-29T11:34:26;8.70;;;6.63;;
8293;SDS011;4185;41.506;24.938;2022-12-29T11:36:58;8.23;;;5.97;;
8293;SDS011;4185;41.506;24.938;2022-12-29T11:39:38;8.67;;;5.97;;
8293;SDS011;4185;41.506;24.938;2022-12-29T11:42:12;7.30;;;6.00;;
8293;SDS011;4185;41.506;24.938;2022-12-29T11:44:43;7.30;;;5.83;;
8293;SDS011;4185;41.506;24.938;2022-12-29T11:47:13;7.63;;;6.17;;
8293;SDS011;4185;41.506;24.938;2022-12-29T11:49:49;7.97;;;6.23;;
8293;SDS011;4185;41.506;24.938;2022-12-29T11:52:20;8.87;;;6.73;;
8293;SDS011;4185;41.506;24.938;2022-12-29T11:54:50;8.43;;;5.87;;
8293;SDS011;4185;41.506;24.938;2022-12-29T11:57:18;9.23;;;6.20;;
8293;SDS011;4185;41.506;24.938;2022-12-29T11:59:49;9.63;;;7.07;;
8293;SDS011;4185;41.506;24.938;2022-12-29T12:05:09;7.53;;;5.73;;
8293;SDS011;4185;41.506;24.938;2022-12-29T12:07:41;8.60;;;6.10;;
8293;SDS011;4185;41.506;24.938;2022-12-29T12:10:19;10.93;;;8.10;;
8293;SDS011;4185;41.506;24.938;2022-12-29T12:12:53;11.17;;;6.97;;
8293;SDS011;4185;41.506;24.938;2022-12-29T12:15:27;13.97;;;9.10;;
8293;SDS011;4185;41.506;24.938;2022-12-29T12:17:59;9.10;;;7.00;;
8293;SDS011;4185;41.506;24.938;2022-12-29T12:20:34;10.93;;;7.27;;
8293;SDS011;4185;41.506;24.938;2022-12-29T12:23:12;10.37;;;7.93;;
8293;SDS011;4185;41.506;24.938;2022-12-29T12:25:50;31.60;;;18.50;;
8293;SDS011;4185;41.506;24.938;2022-12-29T12:28:24;21.90;;;12.23;;
8293;SDS011;4185;41.506;24.938;2022-12-29T12:30:57;14.27;;;9.10;;
8293;SDS011;4185;41.506;24.938;2022-12-29T12:33:28;22.33;;;14.00;;
8293;SDS011;4185;41.506;24.938;2022-12-29T12:36:07;20.43;;;13.00;;
8293;SDS011;4185;41.506;24.938;2022-12-29T12:38:48;29.43;;;19.30;;
8293;SDS011;4185;41.506;24.938;2022-12-29T12:41:24;28.27;;;20.07;;
8293;SDS011;4185;41.506;24.938;2022-12-29T12:44:00;24.43;;;17.47;;
8293;SDS011;4185;41.506;24.938;2022-12-29T12:46:36;19.33;;;13.80;;
8293;SDS011;4185;41.506;24.938;2022-12-29T12:52:29;36.77;;;27.37;;
8293;SDS011;4185;41.506;24.938;2022-12-29T12:55:18;23.57;;;17.10;;
8293;SDS011;4185;41.506;24.938;2022-12-29T12:57:59;35.53;;;25.10;;
8293;SDS011;4185;41.506;24.938;2022-12-29T13:00:38;10.60;;;8.63;;
8293;SDS011;4185;41.506;24.938;2022-12-29T13:03:16;34.33;;;25.33;;
8293;SDS011;4185;41.506;24.938;2022-12-29T13:05:54;37.75;;;28.85;;
8293;SDS011;4185;41.506;24.938;2022-12-29T13:08:40;16.98;;;12.35;;
8293;SDS011;4185;41.506;24.938;2022-12-29T13:11:17;7.47;;;6.07;;
8293;SDS011;4185;41.506;24.938;2022-12-29T13:16:57;32.88;;;25.60;;
8293;SDS011;4185;41.506;24.938;2022-12-29T13:19:30;34.97;;;27.60;;
8293;SDS011;4185;41.506;24.938;2022-12-29T13:22:06;12.82;;;10.63;;
8293;SDS011;4185;41.506;24.938;2022-12-29T13:24:40;13.70;;;11.20;;
8293;SDS011;4185;41.506;24.938;2022-12-29T13:27:19;51.03;;;29.57;;
8293;SDS011;4185;41.506;24.938;2022-12-29T13:29:58;36.07;;;25.43;;
8293;SDS011;4185;41.506;24.938;2022-12-29T13:32:32;35.20;;;22.13;;
8293;SDS011;4185;41.506;24.938;2022-12-29T13:35:11;38.50;;;25.63;;
8293;SDS011;4185;41.506;24.938;2022-12-29T13:37:52;17.37;;;12.13;;
8293;SDS011;4185;41.506;24.938;2022-12-29T13:40:23;13.20;;;10.37;;
8293;SDS011;4185;41.506;24.938;2022-12-29T13:42:53;10.87;;;7.87;;
8293;SDS011;4185;41.506;24.938;2022-12-29T13:45:24;11.50;;;7.70;;
8293;SDS011;4185;41.506;24.938;2022-12-29T13:47:55;12.13;;;8.77;;
8293;SDS011;4185;41.506;24.938;2022-12-29T13:50:27;15.60;;;12.83;;
8293;SDS011;4185;41.506;24.938;2022-12-29T13:52:59;10.93;;;8.80;;
8293;SDS011;4185;41.506;24.938;2022-12-29T13:55:34;11.03;;;8.40;;
8293;SDS011;4185;41.506;24.938;2022-12-29T13:58:09;10.73;;;7.90;;
8293;SDS011;4185;41.506;24.938;2022-12-29T14:00:46;11.43;;;8.27;;
8293;SDS011;4185;41.506;24.938;2022-12-29T14:06:15;21.97;;;14.73;;
8293;SDS011;4185;41.506;24.938;2022-12-29T14:08:47;107.97;;;59.73;;
8293;SDS011;4185;41.506;24.938;2022-12-29T14:11:16;43.40;;;27.67;;
8293;SDS011;4185;41.506;24.938;2022-12-29T14:13:46;37.43;;;24.87;;
8293;SDS011;4185;41.506;24.938;2022-12-29T14:16:26;28.50;;;18.33;;
8293;SDS011;4185;41.506;24.938;2022-12-29T14:18:55;28.47;;;18.20;;
8293;SDS011;4185;41.506;24.938;2022-12-29T14:21:30;53.63;;;32.27;;
8293;SDS011;4185;41.506;24.938;2022-12-29T14:24:26;39.77;;;26.23;;
8293;SDS011;4185;41.506;24.938;2022-12-29T14:30:45;57.17;;;37.13;;
8293;SDS011;4185;41.506;24.938;2022-12-29T14:33:17;40.17;;;25.03;;
8293;SDS011;4185;41.506;24.938;2022-12-29T14:35:49;30.33;;;17.73;;
8293;SDS011;4185;41.506;24.938;2022-12-29T14:43:52;39.90;;;25.30;;
8293;SDS011;4185;41.506;24.938;2022-12-29T14:46:22;63.60;;;31.90;;
8293;SDS011;4185;41.506;24.938;2022-12-29T14:48:52;54.57;;;31.27;;
8293;SDS011;4185;41.506;24.938;2022-12-29T14:51:27;64.60;;;38.67;;
8293;SDS011;4185;41.506;24.938;2022-12-29T14:53:58;52.23;;;33.37;;
8293;SDS011;4185;41.506;24.938;2022-12-29T14:56:26;61.13;;;39.67;;
8293;SDS011;4185;41.506;24.938;2022-12-29T14:58:58;44.73;;;27.27;;
8293;SDS011;4185;41.506;24.938;2022-12-29T15:01:33;39.23;;;24.77;;
8293;SDS011;4185;41.506;24.938;2022-12-29T15:04:12;48.40;;;28.80;;
8293;SDS011;4185;41.506;24.938;2022-12-29T15:06:43;47.90;;;29.17;;
8293;SDS011;4185;41.506;24.938;2022-12-29T15:09:12;66.80;;;37.93;;
8293;SDS011;4185;41.506;24.938;2022-12-29T15:11:49;47.97;;;31.53;;
8293;SDS011;4185;41.506;24.938;2022-12-29T15:14:31;49.97;;;32.20;;
8293;SDS011;4185;41.506;24.938;2022-12-29T15:17:00;46.70;;;29.37;;
8293;SDS011;4185;41.506;24.938;2022-12-29T15:19:35;35.50;;;22.57;;
8293;SDS011;4185;41.506;24.938;2022-12-29T15:22:02;49.53;;;28.47;;
8293;SDS011;4185;41.506;24.938;2022-12-29T15:24:30;76.83;;;42.67;;
8293;SDS011;4185;41.506;24.938;2022-12-29T15:26:56;87.60;;;54.27;;
8293;SDS011;4185;41.506;24.938;2022-12-29T15:29:35;55.93;;;33.20;;
8293;SDS011;4185;41.506;24.938;2022-12-29T15:32:16;62.43;;;42.03;;